createdAt,value
2022-08-28T00:00:26.178Z,100.00
2022-08-28T00:01:13.109Z,100.00
2022-08-28T00:02:00.101Z,100.00
2022-08-28T00:02:47.488Z,100.00
2022-08-28T00:03:35.386Z,100.00
2022-08-28T00:04:25.318Z,100.00
2022-08-28T00:05:12.980Z,100.00
2022-08-28T00:06:00.461Z,100.00
2022-08-28T00:06:47.554Z,100.00
2022-08-28T00:07:35.101Z,100.00
2022-08-28T00:08:22.285Z,100.00
2022-08-28T00:09:09.108Z,100.00
2022-08-28T00:09:58.323Z,100.00
2022-08-28T00:10:45.902Z,100.00
2022-08-28T00:11:32.778Z,100.00
2022-08-28T00:12:20.392Z,100.00
2022-08-28T00:13:09.710Z,100.00
2022-08-28T00:13:56.825Z,100.00
2022-08-28T00:14:43.778Z,100.00
2022-08-28T00:15:33.644Z,100.00
2022-08-28T00:16:20.590Z,100.00
2022-08-28T00:17:07.591Z,100.00
2022-08-28T00:17:54.487Z,100.00
2022-08-28T00:18:41.376Z,100.00
2022-08-28T00:19:28.251Z,100.00
2022-08-28T00:20:19.177Z,100.00
2022-08-28T00:21:06.276Z,100.00
2022-08-28T00:21:54.136Z,100.00
2022-08-28T00:22:41.506Z,100.00
2022-08-28T00:23:28.543Z,100.00
2022-08-28T00:24:29.505Z,100.00
2022-08-28T00:25:17.508Z,100.00
2022-08-28T00:26:04.502Z,100.00
2022-08-28T00:27:11.709Z,100.00
2022-08-28T00:28:01.381Z,100.00
2022-08-28T00:28:52.375Z,100.00
2022-08-28T00:29:39.320Z,100.00
2022-08-28T00:30:29.948Z,100.00
2022-08-28T00:31:17.447Z,100.00
2022-08-28T00:32:04.574Z,100.00
2022-08-28T00:32:52.665Z,100.00
2022-08-28T00:33:40.063Z,100.00
2022-08-28T00:34:33.635Z,100.00
2022-08-28T00:35:21.274Z,100.00
2022-08-28T00:36:08.167Z,100.00
2022-08-28T00:36:55.316Z,100.00
2022-08-28T00:37:42.629Z,100.00
2022-08-28T00:38:30.411Z,100.00
2022-08-28T00:39:17.320Z,100.00
2022-08-28T00:40:08.716Z,100.00
2022-08-28T00:40:59.795Z,100.00
2022-08-28T00:41:46.786Z,100.00
2022-08-28T00:42:34.672Z,100.00
2022-08-28T00:43:37.095Z,100.00
2022-08-28T00:44:25.938Z,100.00
2022-08-28T00:45:17.431Z,100.00
2022-08-28T00:46:07.680Z,100.00
2022-08-28T00:46:56.351Z,100.00
2022-08-28T00:47:43.325Z,100.00
2022-08-28T00:48:31.028Z,100.00
2022-08-28T00:49:22.273Z,100.00
2022-08-28T00:50:12.901Z,100.00
2022-08-28T00:51:18.946Z,100.00
2022-08-28T00:52:12.531Z,100.00
2022-08-28T00:53:00.836Z,100.00
2022-08-28T00:53:48.279Z,100.00
2022-08-28T00:54:59.296Z,100.00
2022-08-28T00:55:47.116Z,100.00
2022-08-28T00:56:35.082Z,100.00
2022-08-28T00:57:27.153Z,100.00
2022-08-28T00:58:14.871Z,100.00
2022-08-28T00:59:08.189Z,100.00
2022-08-28T00:59:55.033Z,100.00
2022-08-28T01:00:42.261Z,100.00
2022-08-28T01:01:29.781Z,100.00
2022-08-28T01:02:16.856Z,100.00
2022-08-28T01:03:05.302Z,100.00
2022-08-28T01:03:52.235Z,100.00
2022-08-28T01:04:39.297Z,100.00
2022-08-28T01:05:27.202Z,100.00
2022-08-28T01:06:15.455Z,100.00
2022-08-28T01:07:06.510Z,100.00
2022-08-28T01:07:54.376Z,100.00
2022-08-28T01:08:43.738Z,100.00
2022-08-28T01:09:40.515Z,100.00
2022-08-28T01:10:29.045Z,100.00
2022-08-28T01:11:17.315Z,100.00
2022-08-28T01:12:11.178Z,100.00
2022-08-28T01:12:58.559Z,100.00
2022-08-28T01:13:48.809Z,100.00
2022-08-28T01:14:38.063Z,100.00
2022-08-28T01:15:28.803Z,100.00
2022-08-28T01:16:16.845Z,100.00
2022-08-28T01:17:04.648Z,100.00
2022-08-28T01:17:54.065Z,100.00
2022-08-28T01:18:42.482Z,100.00
2022-08-28T01:19:41.582Z,100.00
2022-08-28T01:20:31.438Z,100.00
2022-08-28T01:21:39.912Z,100.00
2022-08-28T01:22:44.017Z,100.00
2022-08-28T01:23:53.868Z,100.00
2022-08-28T01:24:41.283Z,100.00
2022-08-28T01:25:31.805Z,100.00
2022-08-28T01:26:18.543Z,100.00
2022-08-28T01:27:05.589Z,100.00
2022-08-28T01:27:52.441Z,100.00
2022-08-28T01:28:39.818Z,100.00
2022-08-28T01:29:29.210Z,100.00
2022-08-28T01:30:19.795Z,100.00
2022-08-28T01:31:10.565Z,100.00
2022-08-28T01:31:57.848Z,100.00
2022-08-28T01:32:49.632Z,100.00
2022-08-28T01:33:36.704Z,100.00
2022-08-28T01:34:28.244Z,100.00
2022-08-28T01:35:18.442Z,100.00
2022-08-28T01:36:08.328Z,100.00
2022-08-28T01:36:55.116Z,100.00
2022-08-28T01:37:46.264Z,100.00
2022-08-28T01:38:33.286Z,100.00
2022-08-28T01:39:23.287Z,100.00
2022-08-28T01:40:12.555Z,100.00
2022-08-28T01:40:59.981Z,100.00
2022-08-28T01:41:48.701Z,100.00
2022-08-28T01:42:43.510Z,100.00
2022-08-28T01:43:31.575Z,100.00
2022-08-28T01:44:24.588Z,100.00
2022-08-28T01:45:14.838Z,100.00
2022-08-28T01:46:04.793Z,100.00
2022-08-28T01:46:56.867Z,100.00
2022-08-28T01:47:44.761Z,100.00
2022-08-28T01:48:36.042Z,100.00
2022-08-28T01:49:24.906Z,100.00
2022-08-28T01:50:15.019Z,100.00
2022-08-28T01:51:03.448Z,100.00
2022-08-28T01:51:50.662Z,100.00
2022-08-28T01:52:39.309Z,100.00
2022-08-28T01:53:32.534Z,100.00
2022-08-28T01:54:20.169Z,100.00
2022-08-28T01:55:08.397Z,100.00
2022-08-28T01:55:56.346Z,100.00
2022-08-28T01:56:44.562Z,100.00
2022-08-28T01:57:31.456Z,100.00
2022-08-28T01:58:18.703Z,100.00
2022-08-28T01:59:07.611Z,100.00
2022-08-28T01:59:54.911Z,100.00
2022-08-28T02:00:42.196Z,100.00
2022-08-28T02:01:29.823Z,100.00
2022-08-28T02:02:17.422Z,100.00
2022-08-28T02:03:04.938Z,100.00
2022-08-28T02:03:53.198Z,100.00
2022-08-28T02:04:40.143Z,100.00
2022-08-28T02:05:30.010Z,100.00
2022-08-28T02:06:17.290Z,100.00
2022-08-28T02:07:04.549Z,100.00
2022-08-28T02:07:52.815Z,100.00
2022-08-28T02:08:39.822Z,100.00
2022-08-28T02:09:26.665Z,100.00
2022-08-28T02:10:13.618Z,100.00
2022-08-28T02:11:00.880Z,100.00
2022-08-28T02:11:47.749Z,100.00
2022-08-28T02:12:34.675Z,100.00
2022-08-28T02:13:25.736Z,100.00
2022-08-28T02:14:12.719Z,100.00
2022-08-28T02:14:59.740Z,100.00
2022-08-28T02:15:46.717Z,100.00
2022-08-28T02:16:33.723Z,100.00
2022-08-28T02:17:20.628Z,100.00
2022-08-28T02:18:07.535Z,100.00
2022-08-28T02:18:54.488Z,100.00
2022-08-28T02:19:41.401Z,100.00
2022-08-28T02:20:29.344Z,100.00
2022-08-28T02:21:16.319Z,100.00
2022-08-28T02:22:08.273Z,100.00
2022-08-28T02:22:56.018Z,100.00
2022-08-28T02:23:44.066Z,100.00
2022-08-28T02:24:31.022Z,100.00
2022-08-28T02:25:19.136Z,100.00
2022-08-28T02:26:06.152Z,100.00
2022-08-28T02:26:52.961Z,100.00
2022-08-28T02:27:40.281Z,100.00
2022-08-28T02:28:27.187Z,100.00
2022-08-28T02:29:14.482Z,100.00
2022-08-28T02:30:01.297Z,100.00
2022-08-28T02:30:48.605Z,100.00
2022-08-28T02:31:35.585Z,100.00
2022-08-28T02:32:22.420Z,100.00
2022-08-28T02:33:09.312Z,100.00
2022-08-28T02:33:56.114Z,100.00
2022-08-28T02:34:43.819Z,100.00
2022-08-28T02:35:31.532Z,100.00
2022-08-28T02:36:18.600Z,100.00
2022-08-28T02:37:08.184Z,100.00
2022-08-28T02:37:55.563Z,100.00
2022-08-28T02:38:44.299Z,100.00
2022-08-28T02:39:31.793Z,100.00
2022-08-28T02:40:21.326Z,100.00
2022-08-28T02:41:08.602Z,100.00
2022-08-28T02:41:56.030Z,100.00
2022-08-28T02:42:43.738Z,100.00
2022-08-28T02:43:31.180Z,100.00
2022-08-28T02:44:18.002Z,100.00
2022-08-28T02:45:05.576Z,100.00
2022-08-28T02:45:52.453Z,100.00
2022-08-28T02:46:39.414Z,100.00
2022-08-28T02:47:26.322Z,100.00
2022-08-28T02:48:17.413Z,100.00
2022-08-28T02:49:04.575Z,100.00
2022-08-28T02:49:51.564Z,100.00
2022-08-28T02:50:39.023Z,100.00
2022-08-28T02:51:26.017Z,100.00
2022-08-28T02:52:13.376Z,100.00
2022-08-28T02:53:00.342Z,100.00
2022-08-28T02:53:47.508Z,100.00
2022-08-28T02:54:35.443Z,100.00
2022-08-28T02:55:22.891Z,100.00
2022-08-28T02:56:10.354Z,100.00
2022-08-28T02:56:57.194Z,100.00
2022-08-28T02:57:44.595Z,100.00
2022-08-28T02:58:32.972Z,100.00
2022-08-28T02:59:19.818Z,100.00
2022-08-28T03:00:12.118Z,100.00
2022-08-28T03:01:01.059Z,100.00
2022-08-28T03:01:48.840Z,100.00
2022-08-28T03:02:36.774Z,100.00
2022-08-28T03:03:23.753Z,100.00
2022-08-28T03:04:10.641Z,100.00
2022-08-28T03:04:57.540Z,100.00
2022-08-28T03:05:45.052Z,100.00
2022-08-28T03:06:33.063Z,100.00
2022-08-28T03:07:20.018Z,100.00
2022-08-28T03:08:07.092Z,100.00
2022-08-28T03:08:54.065Z,100.00
2022-08-28T03:09:44.465Z,100.00
2022-08-28T03:10:31.430Z,100.00
2022-08-28T03:11:18.202Z,100.00
2022-08-28T03:12:05.400Z,100.00
2022-08-28T03:12:52.983Z,100.00
2022-08-28T03:13:39.958Z,100.00
2022-08-28T03:14:26.816Z,100.00
2022-08-28T03:15:13.700Z,100.00
2022-08-28T03:16:00.705Z,100.00
2022-08-28T03:16:47.958Z,100.00
2022-08-28T03:17:37.062Z,100.00
2022-08-28T03:18:25.707Z,100.00
2022-08-28T03:19:12.909Z,100.00
2022-08-28T03:20:00.476Z,100.00
2022-08-28T03:20:47.504Z,100.00
2022-08-28T03:21:34.325Z,100.00
2022-08-28T03:22:41.161Z,100.00
2022-08-28T03:23:28.064Z,100.00
2022-08-28T03:24:15.695Z,100.00
2022-08-28T03:25:02.704Z,100.00
2022-08-28T03:25:50.972Z,100.00
2022-08-28T03:26:37.802Z,100.00
2022-08-28T03:27:24.619Z,100.00
2022-08-28T03:28:12.308Z,100.00
2022-08-28T03:28:59.775Z,100.00
2022-08-28T03:29:47.222Z,100.00
2022-08-28T03:30:34.122Z,100.00
2022-08-28T03:31:24.157Z,100.00
2022-08-28T03:32:10.962Z,100.00
2022-08-28T03:32:57.768Z,100.00
2022-08-28T03:33:45.847Z,100.00
2022-08-28T03:34:33.759Z,100.00
2022-08-28T03:35:22.112Z,100.00
2022-08-28T03:36:10.950Z,100.00
2022-08-28T03:36:57.702Z,100.00
2022-08-28T03:37:44.589Z,100.00
2022-08-28T03:38:31.461Z,100.00
2022-08-28T03:39:18.395Z,100.00
2022-08-28T03:40:07.184Z,100.00
2022-08-28T03:40:54.594Z,100.00
2022-08-28T03:41:41.875Z,100.00
2022-08-28T03:42:28.741Z,100.00
2022-08-28T03:43:22.256Z,100.00
2022-08-28T03:44:09.667Z,100.00
2022-08-28T03:44:56.521Z,100.00
2022-08-28T03:45:53.121Z,100.00
2022-08-28T03:46:39.984Z,100.00
2022-08-28T03:47:29.693Z,100.00
2022-08-28T03:48:16.635Z,100.00
2022-08-28T03:49:04.266Z,100.00
2022-08-28T03:49:56.649Z,100.00
2022-08-28T03:50:43.800Z,100.00
2022-08-28T03:51:32.985Z,100.00
2022-08-28T03:52:19.817Z,100.00
2022-08-28T03:53:06.649Z,100.00
2022-08-28T03:53:53.630Z,100.00
2022-08-28T03:54:40.581Z,100.00
2022-08-28T03:55:28.035Z,100.00
2022-08-28T03:56:22.458Z,100.00
2022-08-28T03:57:09.234Z,100.00
2022-08-28T03:57:56.506Z,100.00
2022-08-28T03:58:43.861Z,100.00
2022-08-28T03:59:32.588Z,100.00
2022-08-28T04:00:20.633Z,100.00
2022-08-28T04:01:08.443Z,100.00
2022-08-28T04:01:55.682Z,100.00
2022-08-28T04:02:44.595Z,100.00
2022-08-28T04:03:31.422Z,100.00
2022-08-28T04:04:18.316Z,100.00
2022-08-28T04:05:05.870Z,100.00
2022-08-28T04:05:52.891Z,100.00
2022-08-28T04:06:39.909Z,100.00
2022-08-28T04:07:26.803Z,100.00
2022-08-28T04:08:16.272Z,100.00
2022-08-28T04:09:03.185Z,100.00
2022-08-28T04:09:50.074Z,100.00
2022-08-28T04:10:36.957Z,100.00
2022-08-28T04:11:24.497Z,100.00
2022-08-28T04:12:11.343Z,100.00
2022-08-28T04:12:58.341Z,100.00
2022-08-28T04:13:45.589Z,100.00
2022-08-28T04:14:32.522Z,100.00
2022-08-28T04:15:20.537Z,100.00
2022-08-28T04:16:12.659Z,100.00
2022-08-28T04:17:01.482Z,100.00
2022-08-28T04:17:48.588Z,100.00
2022-08-28T04:18:35.949Z,100.00
2022-08-28T04:19:22.716Z,100.00
2022-08-28T04:20:11.153Z,100.00
2022-08-28T04:21:06.181Z,100.00
2022-08-28T04:21:53.639Z,100.00
2022-08-28T04:22:41.586Z,100.00
2022-08-28T04:23:29.534Z,100.00
2022-08-28T04:24:16.458Z,100.00
2022-08-28T04:25:04.022Z,100.00
2022-08-28T04:25:50.942Z,100.00
2022-08-28T04:26:38.080Z,100.00
2022-08-28T04:27:25.005Z,100.00
2022-08-28T04:28:12.024Z,100.00
2022-08-28T04:28:58.948Z,100.00
2022-08-28T04:29:45.985Z,100.00
2022-08-28T04:30:32.799Z,100.00
2022-08-28T04:31:19.674Z,100.00
2022-08-28T04:32:19.404Z,100.00
2022-08-28T04:33:06.434Z,100.00
2022-08-28T04:33:53.222Z,100.00
2022-08-28T04:34:40.181Z,100.00
2022-08-28T04:35:27.185Z,100.00
2022-08-28T04:36:18.072Z,100.00
2022-08-28T04:37:05.670Z,100.00
2022-08-28T04:37:54.029Z,100.00
2022-08-28T04:38:44.110Z,100.00
2022-08-28T04:39:32.032Z,100.00
2022-08-28T04:40:19.575Z,100.00
2022-08-28T04:41:08.159Z,100.00
2022-08-28T04:41:55.666Z,100.00
2022-08-28T04:42:43.016Z,100.00
2022-08-28T04:43:29.908Z,100.00
2022-08-28T04:44:17.016Z,100.00
2022-08-28T04:45:04.702Z,100.00
2022-08-28T04:45:51.609Z,100.00
2022-08-28T04:46:38.778Z,100.00
2022-08-28T04:47:26.336Z,100.00
2022-08-28T04:48:14.556Z,100.00
2022-08-28T04:49:01.531Z,100.00
2022-08-28T04:49:48.352Z,100.00
2022-08-28T04:50:35.358Z,100.00
2022-08-28T04:51:22.725Z,100.00
2022-08-28T04:52:09.544Z,100.00
2022-08-28T04:52:56.385Z,100.00
2022-08-28T04:53:44.831Z,100.00
2022-08-28T04:54:34.341Z,100.00
2022-08-28T04:55:27.841Z,100.00
2022-08-28T04:56:28.043Z,100.00
2022-08-28T04:57:15.078Z,100.00
2022-08-28T04:58:01.880Z,100.00
2022-08-28T04:58:48.819Z,100.00
2022-08-28T04:59:35.663Z,100.00
2022-08-28T05:00:23.904Z,100.00
2022-08-28T05:01:13.525Z,100.00
2022-08-28T05:02:00.729Z,100.00
2022-08-28T05:02:47.587Z,100.00
2022-08-28T05:03:34.513Z,100.00
2022-08-28T05:04:21.457Z,100.00
2022-08-28T05:05:08.720Z,100.00
2022-08-28T05:05:55.628Z,100.00
2022-08-28T05:06:46.407Z,100.00
2022-08-28T05:07:34.223Z,100.00
2022-08-28T05:08:23.777Z,100.00
2022-08-28T05:09:10.559Z,100.00
2022-08-28T05:09:57.635Z,100.00
2022-08-28T05:10:46.581Z,100.00
2022-08-28T05:11:35.136Z,99.89
2022-08-28T05:12:22.305Z,99.53
2022-08-28T05:13:10.697Z,98.45
2022-08-28T05:13:57.583Z,98.30
2022-08-28T05:14:44.764Z,97.79
2022-08-28T05:15:31.558Z,96.35
2022-08-28T05:16:19.730Z,94.78
2022-08-28T05:17:06.652Z,92.37
2022-08-28T05:17:53.498Z,90.91
2022-08-28T05:18:40.543Z,90.52
2022-08-28T05:19:28.349Z,90.48
2022-08-28T05:20:15.131Z,90.21
2022-08-28T05:21:02.430Z,90.12
2022-08-28T05:21:49.736Z,90.49
2022-08-28T05:22:36.678Z,90.84
2022-08-28T05:23:25.471Z,91.80
2022-08-28T05:24:14.031Z,91.86
2022-08-28T05:25:03.940Z,92.70
2022-08-28T05:25:50.797Z,93.88
2022-08-28T05:26:40.069Z,93.98
2022-08-28T05:27:28.381Z,94.04
2022-08-28T05:28:19.863Z,93.96
2022-08-28T05:29:07.302Z,94.24
2022-08-28T05:29:57.280Z,94.10
2022-08-28T05:30:47.131Z,93.62
2022-08-28T05:31:34.697Z,93.78
2022-08-28T05:32:22.224Z,94.43
2022-08-28T05:33:10.256Z,94.94
2022-08-28T05:33:58.152Z,94.94
2022-08-28T05:34:45.023Z,94.71
2022-08-28T05:35:36.618Z,94.18
2022-08-28T05:36:25.903Z,93.80
2022-08-28T05:37:19.908Z,93.44
2022-08-28T05:38:07.725Z,93.16
2022-08-28T05:38:58.265Z,92.43
2022-08-28T05:39:44.952Z,91.86
2022-08-28T05:40:32.147Z,90.77
2022-08-28T05:41:21.198Z,90.13
2022-08-28T05:42:08.010Z,89.50
2022-08-28T05:42:56.065Z,89.31
2022-08-28T05:43:42.909Z,89.38
2022-08-28T05:44:29.742Z,88.68
2022-08-28T05:45:16.624Z,87.47
2022-08-28T05:46:07.614Z,87.35
2022-08-28T05:46:54.519Z,85.50
2022-08-28T05:47:41.300Z,84.71
2022-08-28T05:48:32.920Z,83.67
2022-08-28T05:49:25.184Z,83.15
2022-08-28T05:50:15.320Z,82.47
2022-08-28T05:51:11.349Z,81.75
2022-08-28T05:51:58.235Z,82.45
2022-08-28T05:52:45.136Z,81.95
2022-08-28T05:53:32.407Z,81.96
2022-08-28T05:54:19.240Z,82.77
2022-08-28T05:55:08.502Z,82.49
2022-08-28T05:55:55.547Z,81.19
2022-08-28T05:56:44.118Z,80.38
2022-08-28T05:57:31.084Z,79.15
2022-08-28T05:58:31.992Z,79.24
2022-08-28T05:59:18.913Z,79.87
2022-08-28T06:00:06.550Z,80.63
2022-08-28T06:00:53.424Z,80.12
2022-08-28T06:01:46.160Z,81.04
2022-08-28T06:02:34.902Z,80.33
2022-08-28T06:03:23.260Z,80.61
2022-08-28T06:04:19.680Z,82.23
2022-08-28T06:05:29.361Z,81.39
2022-08-28T06:06:16.170Z,81.28
2022-08-28T06:07:05.279Z,79.78
2022-08-28T06:07:52.705Z,78.93
2022-08-28T06:08:56.425Z,79.37
2022-08-28T06:09:46.015Z,79.82
2022-08-28T06:10:32.966Z,79.54
2022-08-28T06:11:21.935Z,80.69
2022-08-28T06:12:12.170Z,81.01
2022-08-28T06:13:00.802Z,79.70
2022-08-28T06:13:48.018Z,77.87
2022-08-28T06:14:35.183Z,77.77
2022-08-28T06:15:22.304Z,75.19
2022-08-28T06:16:09.643Z,76.14
2022-08-28T06:16:57.222Z,76.07
2022-08-28T06:17:44.135Z,75.37
2022-08-28T06:18:31.704Z,74.91
2022-08-28T06:19:20.941Z,74.30
2022-08-28T06:20:08.844Z,75.40
2022-08-28T06:20:55.942Z,74.34
2022-08-28T06:21:43.388Z,73.87
2022-08-28T06:22:30.338Z,74.56
2022-08-28T06:23:24.018Z,73.57
2022-08-28T06:24:12.330Z,72.78
2022-08-28T06:24:59.342Z,73.04
2022-08-28T06:25:49.387Z,70.45
2022-08-28T06:26:36.241Z,70.88
2022-08-28T06:27:23.064Z,71.10
2022-08-28T06:28:09.909Z,71.85
2022-08-28T06:29:08.046Z,72.41
2022-08-28T06:29:55.027Z,71.57
2022-08-28T06:31:02.718Z,69.34
2022-08-28T06:32:00.141Z,69.61
2022-08-28T06:32:48.544Z,70.18
2022-08-28T06:33:35.340Z,69.55
2022-08-28T06:34:22.308Z,68.69
2022-08-28T06:35:09.310Z,68.93
2022-08-28T06:35:57.787Z,67.56
2022-08-28T06:36:44.626Z,68.33
2022-08-28T06:37:31.476Z,68.48
2022-08-28T06:38:20.024Z,68.19
2022-08-28T06:39:07.402Z,69.43
2022-08-28T06:39:54.280Z,69.77
2022-08-28T06:40:46.547Z,69.67
2022-08-28T06:41:34.667Z,69.27
2022-08-28T06:42:21.687Z,70.09
2022-08-28T06:43:09.540Z,70.04
2022-08-28T06:43:56.475Z,70.83
2022-08-28T06:44:43.297Z,71.64
2022-08-28T06:45:31.261Z,71.09
2022-08-28T06:46:18.308Z,70.73
2022-08-28T06:47:05.396Z,71.41
2022-08-28T06:47:52.226Z,71.40
2022-08-28T06:48:40.441Z,70.06
2022-08-28T06:49:27.628Z,69.15
2022-08-28T06:50:14.663Z,69.05
2022-08-28T06:51:01.841Z,69.83
2022-08-28T06:51:49.058Z,70.94
2022-08-28T06:52:36.065Z,69.31
2022-08-28T06:53:28.589Z,69.63
2022-08-28T06:54:22.272Z,70.32
2022-08-28T06:55:10.785Z,69.18
2022-08-28T06:56:01.351Z,68.37
2022-08-28T06:56:48.217Z,68.41
2022-08-28T06:57:35.796Z,68.31
2022-08-28T06:58:22.732Z,69.01
2022-08-28T06:59:09.506Z,68.48
2022-08-28T06:59:57.736Z,68.44
2022-08-28T07:00:44.548Z,70.52
2022-08-28T07:01:33.941Z,71.24
2022-08-28T07:02:22.412Z,69.02
2022-08-28T07:03:15.700Z,67.77
2022-08-28T07:04:08.144Z,69.28
2022-08-28T07:04:54.863Z,69.47
2022-08-28T07:05:41.772Z,68.76
2022-08-28T07:06:32.473Z,68.07
2022-08-28T07:07:32.654Z,67.68
2022-08-28T07:08:19.672Z,67.59
2022-08-28T07:09:09.276Z,68.10
2022-08-28T07:09:56.039Z,69.33
2022-08-28T07:10:42.845Z,69.33
2022-08-28T07:11:31.780Z,69.37
2022-08-28T07:12:18.793Z,68.96
2022-08-28T07:13:05.999Z,68.70
2022-08-28T07:13:53.826Z,67.73
2022-08-28T07:14:40.644Z,67.03
2022-08-28T07:15:27.986Z,66.71
2022-08-28T07:16:17.570Z,66.51
2022-08-28T07:17:04.494Z,67.39
2022-08-28T07:17:51.586Z,66.78
2022-08-28T07:18:38.713Z,66.14
2022-08-28T07:19:25.707Z,65.19
2022-08-28T07:20:13.107Z,64.08
2022-08-28T07:21:03.340Z,64.97
2022-08-28T07:21:50.233Z,64.12
2022-08-28T07:22:38.255Z,64.29
2022-08-28T07:23:25.308Z,64.56
2022-08-28T07:24:13.837Z,63.72
2022-08-28T07:25:00.663Z,61.84
2022-08-28T07:25:47.585Z,62.50
2022-08-28T07:26:34.975Z,61.26
2022-08-28T07:27:23.127Z,63.95
2022-08-28T07:28:10.064Z,63.63
2022-08-28T07:29:09.526Z,62.24
2022-08-28T07:29:58.659Z,61.65
2022-08-28T07:30:46.013Z,63.12
2022-08-28T07:31:32.929Z,63.00
2022-08-28T07:32:23.040Z,62.57
2022-08-28T07:33:09.856Z,62.68
2022-08-28T07:33:56.702Z,61.80
2022-08-28T07:34:44.055Z,61.31
2022-08-28T07:35:30.939Z,61.11
2022-08-28T07:36:29.716Z,60.74
2022-08-28T07:37:18.189Z,60.99
2022-08-28T07:38:05.131Z,61.86
2022-08-28T07:38:52.152Z,61.91
2022-08-28T07:39:40.599Z,62.54
2022-08-28T07:40:27.471Z,62.33
2022-08-28T07:41:21.068Z,62.15
2022-08-28T07:42:08.027Z,62.28
2022-08-28T07:43:13.753Z,63.87
2022-08-28T07:44:19.338Z,63.46
2022-08-28T07:45:06.720Z,64.98
2022-08-28T07:46:01.619Z,66.14
2022-08-28T07:46:48.831Z,66.40
2022-08-28T07:47:36.865Z,65.92
2022-08-28T07:48:24.111Z,64.04
2022-08-28T07:49:11.484Z,64.99
2022-08-28T07:50:02.472Z,65.40
2022-08-28T07:50:49.373Z,65.39
2022-08-28T07:51:37.107Z,64.42
2022-08-28T07:52:24.038Z,63.73
2022-08-28T07:53:11.376Z,64.49
2022-08-28T07:53:58.323Z,63.24
2022-08-28T07:54:45.205Z,64.46
2022-08-28T07:55:33.338Z,64.09
2022-08-28T07:56:20.995Z,61.92
2022-08-28T07:57:10.117Z,61.12
2022-08-28T07:57:56.952Z,61.45
2022-08-28T07:58:45.556Z,62.46
2022-08-28T07:59:36.958Z,62.89
2022-08-28T08:00:24.226Z,63.47
2022-08-28T08:01:12.133Z,61.48
2022-08-28T08:01:58.956Z,61.19
2022-08-28T08:02:45.856Z,62.65
2022-08-28T08:03:32.712Z,62.71
2022-08-28T08:04:20.998Z,62.21
2022-08-28T08:05:08.143Z,61.70
2022-08-28T08:05:57.465Z,59.73
2022-08-28T08:06:45.020Z,58.53
2022-08-28T08:07:33.103Z,58.83
2022-08-28T08:08:20.176Z,59.82
2022-08-28T08:09:09.183Z,60.05
2022-08-28T08:09:56.036Z,60.01
2022-08-28T08:10:44.762Z,60.44
2022-08-28T08:11:33.275Z,59.09
2022-08-28T08:12:20.761Z,60.06
2022-08-28T08:13:07.701Z,59.79
2022-08-28T08:13:55.279Z,58.64
2022-08-28T08:14:43.902Z,59.58
2022-08-28T08:15:34.145Z,60.19
2022-08-28T08:16:23.448Z,58.74
2022-08-28T08:17:11.340Z,59.58
2022-08-28T08:17:58.193Z,60.08
2022-08-28T08:18:45.540Z,57.10
2022-08-28T08:19:33.129Z,57.96
2022-08-28T08:20:20.036Z,58.44
2022-08-28T08:21:09.763Z,58.02
2022-08-28T08:21:56.955Z,58.62
2022-08-28T08:22:43.756Z,57.93
2022-08-28T08:23:30.839Z,58.52
2022-08-28T08:24:21.226Z,58.62
2022-08-28T08:25:08.515Z,58.02
2022-08-28T08:26:00.495Z,56.83
2022-08-28T08:26:59.384Z,56.81
2022-08-28T08:27:48.346Z,56.88
2022-08-28T08:28:36.903Z,58.80
2022-08-28T08:29:24.576Z,57.49
2022-08-28T08:30:12.151Z,56.99
2022-08-28T08:31:04.884Z,57.32
2022-08-28T08:32:02.940Z,57.95
2022-08-28T08:32:51.629Z,58.66
2022-08-28T08:33:39.824Z,58.81
2022-08-28T08:34:26.900Z,56.99
2022-08-28T08:35:13.904Z,57.10
2022-08-28T08:36:01.525Z,57.32
2022-08-28T08:36:48.307Z,57.66
2022-08-28T08:37:35.260Z,57.73
2022-08-28T08:38:22.065Z,59.42
2022-08-28T08:39:09.624Z,58.74
2022-08-28T08:39:56.832Z,57.48
2022-08-28T08:40:43.948Z,56.21
2022-08-28T08:41:51.457Z,54.94
2022-08-28T08:42:38.833Z,56.42
2022-08-28T08:43:27.117Z,54.84
2022-08-28T08:44:35.662Z,55.22
2022-08-28T08:45:26.656Z,55.88
2022-08-28T08:46:13.744Z,56.53
2022-08-28T08:47:14.775Z,57.02
2022-08-28T08:48:03.102Z,56.85
2022-08-28T08:48:50.030Z,55.69
2022-08-28T08:49:57.450Z,55.54
2022-08-28T08:50:44.456Z,55.96
2022-08-28T08:51:43.905Z,56.55
2022-08-28T08:52:40.517Z,56.59
2022-08-28T08:53:35.996Z,57.02
2022-08-28T08:54:27.422Z,56.65
2022-08-28T08:55:36.947Z,57.13
2022-08-28T08:56:34.830Z,55.74
2022-08-28T08:57:23.693Z,55.98
2022-08-28T08:58:33.418Z,56.94
2022-08-28T08:59:28.616Z,55.55
2022-08-28T09:00:17.080Z,55.42
2022-08-28T09:01:12.556Z,54.13
2022-08-28T09:02:12.354Z,55.14
2022-08-28T09:03:08.137Z,52.64
2022-08-28T09:04:09.176Z,53.78
2022-08-28T09:05:09.564Z,54.21
2022-08-28T09:06:04.678Z,55.60
2022-08-28T09:07:25.946Z,55.60
2022-08-28T09:08:19.428Z,56.12
2022-08-28T09:09:17.921Z,55.21
2022-08-28T09:10:11.231Z,57.14
2022-08-28T09:11:30.500Z,56.06
2022-08-28T09:12:27.524Z,55.43
2022-08-28T09:13:39.635Z,54.98
2022-08-28T09:14:45.297Z,57.31
2022-08-28T09:15:33.247Z,57.03
2022-08-28T09:16:41.424Z,56.45
2022-08-28T09:17:35.336Z,56.13
2022-08-28T09:18:26.459Z,56.14
2022-08-28T09:19:18.092Z,56.10
2022-08-28T09:20:12.277Z,56.69
2022-08-28T09:21:00.247Z,56.69
2022-08-28T09:21:55.368Z,56.90
2022-08-28T09:22:47.053Z,56.97
2022-08-28T09:23:34.064Z,56.38
2022-08-28T09:24:28.741Z,56.23
2022-08-28T09:25:44.628Z,56.35
2022-08-28T09:26:31.649Z,56.84
2022-08-28T09:27:25.378Z,57.87
2022-08-28T09:28:20.224Z,57.45
2022-08-28T09:29:21.858Z,57.62
2022-08-28T09:30:14.757Z,58.77
2022-08-28T09:31:20.424Z,57.99
2022-08-28T09:32:25.117Z,60.23
2022-08-28T09:33:11.925Z,58.41
2022-08-28T09:34:16.633Z,59.07
2022-08-28T09:35:06.600Z,58.06
2022-08-28T09:35:53.564Z,57.91
2022-08-28T09:36:40.329Z,58.38
2022-08-28T09:37:28.544Z,57.09
2022-08-28T09:38:27.904Z,57.48
2022-08-28T09:39:24.142Z,57.33
2022-08-28T09:40:22.476Z,57.20
2022-08-28T09:41:29.872Z,58.49
2022-08-28T09:42:41.679Z,57.66
2022-08-28T09:43:34.064Z,57.67
2022-08-28T09:44:20.980Z,58.06
2022-08-28T09:45:16.471Z,57.02
2022-08-28T09:46:04.631Z,58.08
2022-08-28T09:46:54.303Z,57.49
2022-08-28T09:47:50.108Z,57.02
2022-08-28T09:48:40.983Z,55.67
2022-08-28T09:49:33.634Z,56.19
2022-08-28T09:50:37.962Z,56.79
2022-08-28T09:51:31.301Z,56.46
2022-08-28T09:52:25.101Z,57.59
2022-08-28T09:53:12.431Z,59.55
2022-08-28T09:54:09.217Z,59.81
2022-08-28T09:54:56.243Z,60.46
2022-08-28T09:56:07.310Z,58.99
2022-08-28T09:56:55.718Z,57.98
2022-08-28T09:57:44.840Z,57.82
2022-08-28T09:58:46.057Z,58.20
2022-08-28T09:59:34.190Z,57.94
2022-08-28T10:00:23.146Z,59.17
2022-08-28T10:01:16.076Z,59.11
2022-08-28T10:02:41.389Z,59.55
2022-08-28T10:03:36.272Z,60.49
2022-08-28T10:04:44.970Z,59.41
2022-08-28T10:06:09.599Z,58.98
2022-08-28T10:07:03.446Z,58.99
2022-08-28T10:08:01.665Z,60.03
2022-08-28T10:09:05.400Z,58.92
2022-08-28T10:10:10.779Z,59.04
2022-08-28T10:11:08.074Z,58.23
2022-08-28T10:12:25.988Z,58.96
2022-08-28T10:13:37.531Z,58.76
2022-08-28T10:14:40.222Z,58.07
2022-08-28T10:15:50.458Z,58.41
2022-08-28T10:16:49.685Z,57.97
2022-08-28T10:17:54.458Z,57.43
2022-08-28T10:19:02.063Z,59.07
2022-08-28T10:20:07.224Z,58.41
2022-08-28T10:21:19.110Z,57.70
2022-08-28T10:22:26.255Z,57.40
2022-08-28T10:23:35.191Z,57.02
2022-08-28T10:24:49.896Z,58.67
2022-08-28T10:26:07.504Z,58.75
2022-08-28T10:27:03.124Z,58.38
2022-08-28T10:27:58.947Z,56.78
2022-08-28T10:29:12.492Z,57.56
2022-08-28T10:30:13.489Z,56.55
2022-08-28T10:31:38.588Z,57.08
2022-08-28T10:32:40.643Z,58.00
2022-08-28T10:33:30.670Z,56.75
2022-08-28T10:34:26.425Z,58.34
2022-08-28T10:35:18.703Z,57.11
2022-08-28T10:36:26.450Z,56.13
2022-08-28T10:37:26.406Z,57.01